createdAt,value
2023-02-04T00:00:21.399Z,-0.77
2023-02-04T00:03:09.300Z,-0.83
2023-02-04T00:05:37.091Z,-0.98
2023-02-04T00:08:05.790Z,-0.90
2023-02-04T00:10:34.008Z,-0.91
2023-02-04T00:13:02.658Z,-0.95
2023-02-04T00:15:31.117Z,-1.02
2023-02-04T00:17:59.117Z,-1.02
2023-02-04T00:20:26.849Z,-1.02
2023-02-04T00:22:55.044Z,-1.07
2023-02-04T00:25:22.686Z,-1.09
2023-02-04T00:27:50.674Z,-1.03
2023-02-04T00:30:18.630Z,-0.99
2023-02-04T00:32:46.609Z,-0.95
2023-02-04T00:35:14.353Z,-1.07
2023-02-04T00:37:42.333Z,-0.99
2023-02-04T00:40:10.863Z,-1.03
2023-02-04T00:42:40.940Z,-1.02
2023-02-04T00:45:09.788Z,-1.17
2023-02-04T00:47:37.851Z,-1.06
2023-02-04T00:50:06.182Z,-1.03
2023-02-04T00:52:34.591Z,-1.10
2023-02-04T00:55:03.578Z,-1.12
2023-02-04T00:57:31.583Z,-1.13
2023-02-04T00:59:59.267Z,-1.05
2023-02-04T01:02:27.222Z,-1.03
2023-02-04T01:04:55.028Z,-1.02
2023-02-04T01:07:23.534Z,-1.04
2023-02-04T01:09:51.301Z,-1.15
2023-02-04T01:12:19.240Z,-1.10
2023-02-04T01:14:47.068Z,-1.11
2023-02-04T01:17:14.981Z,-1.20
2023-02-04T01:19:42.687Z,-1.08
2023-02-04T01:22:10.614Z,-1.07
2023-02-04T01:24:38.234Z,-1.08
2023-02-04T01:27:24.944Z,-1.13
2023-02-04T01:29:52.636Z,-1.10
2023-02-04T01:32:20.548Z,-1.08
2023-02-04T01:34:48.250Z,-1.08
2023-02-04T01:37:16.280Z,-1.04
2023-02-04T01:39:43.918Z,-1.05
2023-02-04T01:42:12.606Z,-1.06
2023-02-04T01:44:40.901Z,-1.03
2023-02-04T01:47:09.208Z,-1.07
2023-02-04T01:49:36.912Z,-1.06
2023-02-04T01:52:05.666Z,-1.07
2023-02-04T01:54:33.496Z,-1.02
2023-02-04T01:57:02.151Z,-1.06
2023-02-04T01:59:30.066Z,-1.06
2023-02-04T02:02:01.261Z,-1.01
2023-02-04T02:04:34.044Z,-1.11
2023-02-04T02:07:06.445Z,-1.04
2023-02-04T02:09:35.237Z,-1.06
2023-02-04T02:12:04.413Z,-1.01
2023-02-04T02:14:32.699Z,-1.10
2023-02-04T02:17:00.671Z,-1.03
2023-02-04T02:19:33.926Z,-1.00
2023-02-04T02:22:28.998Z,-1.07
2023-02-04T02:24:56.658Z,-1.04
2023-02-04T02:27:24.808Z,-1.02
2023-02-04T02:29:52.702Z,-1.05
2023-02-04T02:32:21.047Z,-1.04
2023-02-04T02:34:48.724Z,-1.12
2023-02-04T02:37:16.751Z,-1.09
2023-02-04T02:39:46.254Z,-1.03
2023-02-04T02:42:17.741Z,-1.04
2023-02-04T02:44:47.038Z,-1.12
2023-02-04T02:47:17.883Z,-1.10
2023-02-04T02:49:48.985Z,-1.12
2023-02-04T02:52:17.722Z,-1.15
2023-02-04T02:54:46.079Z,-1.18
2023-02-04T02:57:21.994Z,-1.14
2023-02-04T02:59:50.230Z,-1.14
2023-02-04T03:02:22.814Z,-1.13
2023-02-04T03:04:55.627Z,-1.10
2023-02-04T03:07:27.366Z,-1.11
2023-02-04T03:09:55.174Z,-1.05
2023-02-04T03:12:23.125Z,-1.05
2023-02-04T03:14:51.057Z,-1.01
2023-02-04T03:17:19.264Z,-0.98
2023-02-04T03:19:47.415Z,-0.97
2023-02-04T03:22:16.317Z,-0.96
2023-02-04T03:24:45.707Z,-0.94
2023-02-04T03:27:15.297Z,-0.99
2023-02-04T03:29:46.437Z,-0.95
2023-02-04T03:32:14.369Z,-0.93
2023-02-04T03:34:41.993Z,-1.03
2023-02-04T03:37:10.026Z,-0.94
2023-02-04T03:39:37.805Z,-0.98
2023-02-04T03:42:05.711Z,-1.08
2023-02-04T03:44:33.362Z,-1.01
2023-02-04T03:47:01.284Z,-1.01
2023-02-04T03:49:29.056Z,-1.07
2023-02-04T03:51:57.005Z,-1.07
2023-02-04T03:54:24.704Z,-1.16
2023-02-04T03:56:52.686Z,-1.13
2023-02-04T03:59:20.473Z,-1.13
2023-02-04T04:01:48.436Z,-1.16
2023-02-04T04:04:16.173Z,-1.23
2023-02-04T04:06:44.101Z,-1.33
2023-02-04T04:09:11.744Z,-1.34
2023-02-04T04:11:39.647Z,-1.43
2023-02-04T04:14:07.359Z,-1.47
2023-02-04T04:16:35.294Z,-1.47
2023-02-04T04:19:03.104Z,-1.56
2023-02-04T04:21:31.154Z,-1.56
2023-02-04T04:23:58.775Z,-1.75
2023-02-04T04:26:26.757Z,-1.70
2023-02-04T04:28:54.432Z,-1.70
2023-02-04T04:31:22.450Z,-1.83
2023-02-04T04:33:50.094Z,-1.55
2023-02-04T04:36:18.129Z,-1.51
2023-02-04T04:38:45.847Z,-1.48
2023-02-04T04:41:13.803Z,-1.57
2023-02-04T04:43:41.433Z,-1.54
2023-02-04T04:46:09.419Z,-1.43
2023-02-04T04:48:37.166Z,-1.28
2023-02-04T04:51:05.198Z,-1.24
2023-02-04T04:53:32.842Z,-1.20
2023-02-04T04:56:00.899Z,-1.17
2023-02-04T04:58:28.543Z,-1.20
2023-02-04T05:00:56.446Z,-1.11
2023-02-04T05:03:24.121Z,-1.07
2023-02-04T05:05:52.025Z,-1.03
2023-02-04T05:08:21.303Z,-1.12
2023-02-04T05:10:50.064Z,-1.10
2023-02-04T05:13:17.661Z,-1.08
2023-02-04T05:15:45.747Z,-1.13
2023-02-04T05:18:13.367Z,-0.97
2023-02-04T05:20:41.284Z,-1.09
2023-02-04T05:23:09.049Z,-0.96
2023-02-04T05:25:36.926Z,-1.01
2023-02-04T05:28:05.056Z,-0.94
2023-02-04T05:30:33.232Z,-0.94
2023-02-04T05:33:01.101Z,-1.02
2023-02-04T05:35:29.630Z,-0.98
2023-02-04T05:37:57.271Z,-0.86
2023-02-04T05:40:25.200Z,-0.78
2023-02-04T05:42:52.800Z,-0.77
2023-02-04T05:45:20.831Z,-0.71
2023-02-04T05:47:48.678Z,-0.81
2023-02-04T05:50:17.008Z,-0.78
2023-02-04T05:52:44.747Z,-0.70
2023-02-04T05:55:13.120Z,-0.83
2023-02-04T05:57:40.898Z,-0.79
2023-02-04T06:00:11.406Z,-0.77
2023-02-04T06:02:42.091Z,-0.93
2023-02-04T06:05:10.388Z,-0.90
2023-02-04T06:07:38.119Z,-0.92
2023-02-04T06:10:06.303Z,-0.90
2023-02-04T06:12:34.561Z,-0.85
2023-02-04T06:15:02.638Z,-1.02
2023-02-04T06:17:30.268Z,-0.92
2023-02-04T06:19:58.305Z,-0.96
2023-02-04T06:22:26.877Z,-0.94
2023-02-04T06:24:54.969Z,-0.96
2023-02-04T06:27:25.365Z,-1.01
2023-02-04T06:29:54.967Z,-1.09
2023-02-04T06:32:22.926Z,-1.09
2023-02-04T06:34:53.681Z,-1.03
2023-02-04T06:37:23.521Z,-1.09
2023-02-04T06:39:54.508Z,-1.20
2023-02-04T06:42:22.170Z,-1.39
2023-02-04T06:44:50.058Z,-1.42
2023-02-04T06:47:17.927Z,-1.40
2023-02-04T06:49:45.844Z,-1.45
2023-02-04T06:52:13.491Z,-1.42
2023-02-04T06:54:41.696Z,-1.51
2023-02-04T06:57:09.499Z,-1.72
2023-02-04T06:59:39.271Z,-1.75
2023-02-04T07:02:08.371Z,-1.69
2023-02-04T07:04:36.435Z,-1.68
2023-02-04T07:07:04.554Z,-1.35
2023-02-04T07:09:32.537Z,-1.07
2023-02-04T07:12:00.301Z,-1.05
2023-02-04T07:14:28.293Z,-0.68
2023-02-04T07:16:58.222Z,-0.91
2023-02-04T07:19:26.182Z,-0.77
2023-02-04T07:21:56.744Z,-0.96
2023-02-04T07:24:25.298Z,-1.05
2023-02-04T07:26:52.967Z,-0.97
2023-02-04T07:29:25.594Z,-0.87
2023-02-04T07:31:54.501Z,-0.44
2023-02-04T07:34:22.917Z,-0.42
2023-02-04T07:36:50.803Z,-0.29
2023-02-04T07:39:18.982Z,-0.47
2023-02-04T07:41:46.834Z,-0.58
2023-02-04T07:44:22.285Z,-0.23
2023-02-04T07:46:50.010Z,-0.23
2023-02-04T07:49:17.985Z,-0.20
2023-02-04T07:51:45.615Z,-0.19
2023-02-04T07:54:13.554Z,-0.24
2023-02-04T07:56:41.216Z,-0.19
2023-02-04T07:59:09.173Z,0.04
2023-02-04T08:01:36.932Z,-0.06
2023-02-04T08:04:05.014Z,-0.21
2023-02-04T08:06:32.739Z,-0.07
2023-02-04T08:09:00.720Z,0.09
2023-02-04T08:11:28.347Z,0.54
2023-02-04T08:13:56.318Z,1.41
2023-02-04T08:16:23.987Z,1.44
2023-02-04T08:18:51.997Z,1.06
2023-02-04T08:21:19.652Z,1.05
2023-02-04T08:23:47.741Z,1.54
2023-02-04T08:26:15.657Z,1.72
2023-02-04T08:28:43.545Z,1.50
2023-02-04T08:31:12.099Z,1.89
2023-02-04T08:33:40.677Z,2.33
2023-02-04T08:36:08.906Z,2.28
2023-02-04T08:38:36.876Z,2.96
2023-02-04T08:41:05.918Z,3.67
2023-02-04T08:43:33.944Z,4.17
2023-02-04T08:46:01.621Z,4.50
2023-02-04T08:48:29.780Z,4.64
2023-02-04T08:50:57.532Z,4.82
2023-02-04T08:53:25.772Z,4.50
2023-02-04T08:55:53.513Z,4.33
2023-02-04T08:58:21.456Z,5.02
2023-02-04T09:00:49.313Z,5.64
2023-02-04T09:03:17.374Z,4.47
2023-02-04T09:05:45.001Z,4.89
2023-02-04T09:08:13.065Z,5.01
2023-02-04T09:10:40.714Z,5.18
2023-02-04T09:13:11.732Z,4.55
2023-02-04T09:15:39.488Z,5.08
2023-02-04T09:18:18.879Z,5.52
2023-02-04T09:20:47.016Z,4.55
2023-02-04T09:23:15.554Z,5.15
2023-02-04T09:25:44.965Z,5.32
2023-02-04T09:28:14.175Z,5.82
2023-02-04T09:30:44.057Z,6.31
2023-02-04T09:33:13.596Z,5.94
2023-02-04T09:35:41.628Z,5.85
2023-02-04T09:38:09.925Z,6.17
2023-02-04T09:40:43.194Z,6.63
2023-02-04T09:43:16.629Z,6.82
2023-02-04T09:45:44.454Z,7.41
2023-02-04T09:48:14.711Z,7.39
2023-02-04T09:50:42.706Z,6.27
2023-02-04T09:53:24.574Z,6.38
2023-02-04T09:55:52.661Z,6.56
2023-02-04T09:58:22.899Z,6.13
2023-02-04T10:01:06.454Z,5.69
2023-02-04T10:03:35.576Z,5.10
2023-02-04T10:06:03.611Z,5.40
2023-02-04T10:08:34.471Z,5.38
2023-02-04T10:11:02.339Z,5.37
2023-02-04T10:13:37.248Z,3.64
2023-02-04T10:16:14.240Z,4.15
2023-02-04T10:18:42.827Z,3.61
2023-02-04T10:21:17.751Z,3.56
2023-02-04T10:23:49.981Z,3.44
2023-02-04T10:26:18.853Z,2.35
2023-02-04T10:28:46.890Z,1.53
2023-02-04T10:31:33.248Z,0.52
2023-02-04T10:34:13.528Z,0.72
2023-02-04T10:36:44.531Z,0.65
2023-02-04T10:39:14.280Z,0.43
2023-02-04T10:41:53.234Z,0.36
2023-02-04T10:44:26.217Z,0.46
2023-02-04T10:49:22.191Z,0.12
2023-02-04T10:51:52.770Z,0.10
2023-02-04T10:54:30.181Z,0.30
2023-02-04T10:57:09.459Z,0.31
2023-02-04T10:59:37.774Z,0.07
2023-02-04T11:02:32.918Z,0.04
2023-02-04T11:05:01.724Z,0.10
2023-02-04T11:07:30.589Z,0.14
2023-02-04T11:09:58.543Z,0.16
2023-02-04T11:12:52.965Z,0.33
2023-02-04T11:15:55.971Z,0.28
2023-02-04T11:18:23.893Z,0.08
2023-02-04T11:20:54.970Z,0.05
2023-02-04T11:23:32.323Z,0.20
2023-02-04T11:26:31.901Z,0.08
2023-02-04T11:28:59.868Z,0.41
2023-02-04T11:31:29.420Z,0.61
2023-02-04T11:34:23.777Z,0.74
2023-02-04T11:37:08.154Z,0.93
2023-02-04T11:39:42.672Z,1.19
2023-02-04T11:42:24.628Z,0.99
2023-02-04T11:44:56.102Z,0.83
2023-02-04T11:47:25.700Z,0.81
2023-02-04T11:50:01.698Z,0.79
2023-02-04T11:52:29.444Z,0.63
2023-02-04T11:54:59.995Z,0.46
2023-02-04T11:57:28.226Z,0.54
2023-02-04T11:59:56.385Z,0.41
2023-02-04T12:02:28.287Z,0.35
2023-02-04T12:05:11.669Z,0.61
2023-02-04T12:07:40.089Z,0.84
2023-02-04T12:10:22.111Z,0.75
2023-02-04T12:12:53.334Z,0.90
2023-02-04T12:15:38.119Z,0.96
2023-02-04T12:18:12.949Z,1.05
2023-02-04T12:20:41.058Z,1.09
2023-02-04T12:23:08.704Z,1.10
2023-02-04T12:25:36.741Z,1.02
2023-02-04T12:28:04.714Z,1.09
2023-02-04T12:30:32.764Z,0.91
2023-02-04T12:33:00.531Z,0.83
2023-02-04T12:35:28.474Z,0.82
2023-02-04T12:37:56.431Z,0.79
2023-02-04T12:40:24.412Z,0.70
2023-02-04T12:42:52.289Z,0.68
2023-02-04T12:45:20.244Z,0.66
2023-02-04T12:47:48.430Z,0.45
2023-02-04T12:50:22.845Z,0.15
2023-02-04T12:52:52.545Z,-0.37
2023-02-04T12:55:23.640Z,-0.46
2023-02-04T12:57:52.218Z,-0.49
2023-02-04T13:00:21.614Z,-0.49
2023-02-04T13:02:49.752Z,-0.49
2023-02-04T13:05:18.555Z,-0.49
2023-02-04T13:07:46.352Z,-0.23
2023-02-04T13:10:15.092Z,-0.03
2023-02-04T13:12:42.733Z,-0.35
2023-02-04T13:15:11.538Z,-0.72
2023-02-04T13:17:39.244Z,-0.80
2023-02-04T13:20:08.571Z,-0.89
2023-02-04T13:22:36.377Z,-0.92
2023-02-04T13:25:05.021Z,-1.05
2023-02-04T13:27:33.344Z,-1.28
2023-02-04T13:30:01.590Z,-1.09
2023-02-04T13:32:29.355Z,-1.03
2023-02-04T13:34:57.323Z,-1.06
2023-02-04T13:37:25.233Z,-0.92
2023-02-04T13:39:53.186Z,-0.94
2023-02-04T13:42:21.569Z,-0.80
2023-02-04T13:44:49.538Z,-0.75
2023-02-04T13:47:17.182Z,-0.55
2023-02-04T13:49:45.285Z,-0.37
2023-02-04T13:52:13.018Z,-0.32
2023-02-04T13:54:41.020Z,-0.18
2023-02-04T13:57:08.746Z,-0.22
2023-02-04T13:59:36.704Z,-0.12
2023-02-04T14:02:04.459Z,-0.24
2023-02-04T14:04:32.381Z,-0.20
2023-02-04T14:07:00.021Z,-0.41
2023-02-04T14:09:28.052Z,-0.35
2023-02-04T14:11:55.749Z,-0.23
2023-02-04T14:14:23.699Z,-0.26
2023-02-04T14:16:51.487Z,-0.30
2023-02-04T14:19:19.528Z,-0.20
2023-02-04T14:21:48.723Z,-0.03
2023-02-04T14:24:17.286Z,-0.24
2023-02-04T14:26:45.522Z,-0.30
2023-02-04T14:29:13.568Z,-0.30
2023-02-04T14:31:41.258Z,-0.31
2023-02-04T14:34:09.312Z,-0.34
2023-02-04T14:36:36.972Z,-0.07
2023-02-04T14:39:05.058Z,-0.13
2023-02-04T14:41:32.862Z,-0.10
2023-02-04T14:44:00.877Z,-0.07
2023-02-04T14:46:28.658Z,-0.08
2023-02-04T14:48:56.650Z,-0.10
2023-02-04T14:51:24.407Z,-0.16
2023-02-04T14:53:52.390Z,-0.46
2023-02-04T14:56:20.036Z,-0.43
2023-02-04T14:58:47.978Z,-0.61
2023-02-04T15:01:15.813Z,-0.66
2023-02-04T15:03:43.794Z,-0.68
2023-02-04T15:06:11.495Z,-0.84
2023-02-04T15:08:39.440Z,-0.98
2023-02-04T15:11:07.085Z,-1.04
2023-02-04T15:13:34.990Z,-1.23
2023-02-04T15:16:04.282Z,-1.25
2023-02-04T15:18:33.387Z,-1.22
2023-02-04T15:21:01.300Z,-1.28
2023-02-04T15:23:29.567Z,-1.33
2023-02-04T15:25:57.678Z,-1.29
2023-02-04T15:28:27.837Z,-1.23
2023-02-04T15:30:55.718Z,-1.27
2023-02-04T15:33:24.055Z,-1.31
2023-02-04T15:35:51.790Z,-1.37
2023-02-04T15:38:19.803Z,-1.41
2023-02-04T15:40:47.823Z,-1.40
2023-02-04T15:43:15.746Z,-1.43
2023-02-04T15:45:44.014Z,-1.48
2023-02-04T15:48:12.216Z,-1.36
2023-02-04T15:50:40.211Z,-1.31
2023-02-04T15:53:08.112Z,-1.38
2023-02-04T15:55:35.775Z,-1.50
2023-02-04T15:58:03.773Z,-1.54
2023-02-04T16:00:31.763Z,-1.51
2023-02-04T16:02:59.903Z,-1.50
2023-02-04T16:05:27.698Z,-1.35
2023-02-04T16:07:55.604Z,-1.48
2023-02-04T16:10:23.324Z,-1.45
2023-02-04T16:12:52.446Z,-1.40
2023-02-04T16:15:20.132Z,-1.49
2023-02-04T16:17:48.393Z,-1.44
2023-02-04T16:20:16.240Z,-1.51
2023-02-04T16:22:44.380Z,-1.56
2023-02-04T16:25:12.114Z,-1.50
2023-02-04T16:27:40.108Z,-1.49
2023-02-04T16:30:08.632Z,-1.58
2023-02-04T16:32:37.132Z,-1.53
2023-02-04T16:35:05.076Z,-1.55
2023-02-04T16:37:34.280Z,-1.49
2023-02-04T16:40:02.246Z,-1.46
2023-02-04T16:42:31.306Z,-1.48
2023-02-04T16:44:59.890Z,-1.57
2023-02-04T16:47:27.874Z,-1.55
2023-02-04T16:49:59.908Z,-1.53
2023-02-04T16:52:29.044Z,-1.44
2023-02-04T16:54:56.993Z,-1.42
2023-02-04T16:57:25.067Z,-1.36
2023-02-04T16:59:52.859Z,-1.10
2023-02-04T17:02:20.814Z,-1.14
2023-02-04T17:04:48.620Z,-1.33
2023-02-04T17:07:16.490Z,-1.47
2023-02-04T17:09:44.146Z,-1.51
2023-02-04T17:12:12.107Z,-1.64
2023-02-04T17:14:41.122Z,-1.70
2023-02-04T17:17:09.134Z,-1.69
2023-02-04T17:19:36.825Z,-1.74
2023-02-04T17:22:05.104Z,-1.69
2023-02-04T17:24:32.892Z,-1.76
2023-02-04T17:27:03.327Z,-1.85
2023-02-04T17:29:30.966Z,-1.80
2023-02-04T17:31:58.910Z,-1.72
2023-02-04T17:34:26.569Z,-1.81
2023-02-04T17:36:54.821Z,-1.91
2023-02-04T17:39:22.534Z,-1.98
2023-02-04T17:41:50.608Z,-2.04
2023-02-04T17:44:20.139Z,-2.02
2023-02-04T17:46:48.256Z,-1.88
2023-02-04T17:49:16.176Z,-1.92
2023-02-04T17:51:44.113Z,-1.92
2023-02-04T17:54:14.211Z,-1.85
2023-02-04T17:56:42.186Z,-2.05
2023-02-04T17:59:11.218Z,-2.01
2023-02-04T18:01:40.755Z,-2.02
2023-02-04T18:04:13.334Z,-1.99
2023-02-04T18:06:41.548Z,-2.04
2023-02-04T18:09:18.902Z,-2.15
2023-02-04T18:11:46.996Z,-2.12
2023-02-04T18:14:27.356Z,-2.18
2023-02-04T18:17:00.565Z,-2.21
2023-02-04T18:19:36.932Z,-2.20
2023-02-04T18:22:11.685Z,-2.19
2023-02-04T18:24:40.254Z,-2.18
2023-02-04T18:27:24.740Z,-2.21
2023-02-04T18:29:55.700Z,-2.30
2023-02-04T18:32:31.267Z,-2.23
2023-02-04T18:34:59.492Z,-2.31
2023-02-04T18:37:30.965Z,-2.34
2023-02-04T18:40:11.369Z,-2.30
2023-02-04T18:42:44.884Z,-2.26
2023-02-04T18:45:25.595Z,-2.11
2023-02-04T18:48:01.826Z,-2.24
2023-02-04T18:50:35.160Z,-2.25
2023-02-04T18:53:35.511Z,-2.27
2023-02-04T18:56:09.372Z,-2.26
2023-02-04T18:58:41.703Z,-2.26
2023-02-04T19:01:12.870Z,-2.35
2023-02-04T19:04:02.087Z,-2.29
2023-02-04T19:06:51.080Z,-2.37
2023-02-04T19:09:32.431Z,-2.40
2023-02-04T19:12:13.478Z,-2.43
2023-02-04T19:14:44.539Z,-2.31
2023-02-04T19:17:17.849Z,-2.33
2023-02-04T19:19:56.781Z,-2.33
2023-02-04T19:22:47.812Z,-2.35
2023-02-04T19:25:41.066Z,-2.40
2023-02-04T19:28:51.324Z,-2.39
2023-02-04T19:31:19.620Z,-2.37
2023-02-04T19:33:51.148Z,-2.47
2023-02-04T19:36:35.812Z,-2.49
2023-02-04T19:39:33.972Z,-2.53
2023-02-04T19:42:03.617Z,-2.47
2023-02-04T19:44:37.554Z,-2.46
2023-02-04T19:47:29.005Z,-2.44
2023-02-04T19:50:28.168Z,-2.32
2023-02-04T19:53:02.078Z,-2.31
2023-02-04T19:55:31.457Z,-2.36
2023-02-04T19:58:15.436Z,-2.42
2023-02-04T20:00:46.992Z,-2.59
2023-02-04T20:03:49.871Z,-2.51
2023-02-04T20:06:26.544Z,-2.62
2023-02-04T20:09:09.586Z,-2.59
2023-02-04T20:11:41.843Z,-2.62
2023-02-04T20:14:15.680Z,-2.63
2023-02-04T20:17:00.412Z,-2.62
2023-02-04T20:19:31.504Z,-2.68
2023-02-04T20:22:17.989Z,-2.56
2023-02-04T20:24:47.466Z,-2.69
2023-02-04T20:27:28.447Z,-2.68
2023-02-04T20:30:26.530Z,-2.61
2023-02-04T20:33:25.312Z,-2.56
2023-02-04T20:35:53.314Z,-2.65
2023-02-04T20:38:21.050Z,-2.80
2023-02-04T20:40:48.941Z,-2.91
2023-02-04T20:43:20.256Z,-2.82
2023-02-04T20:45:55.562Z,-2.89
2023-02-04T20:48:34.847Z,-2.90
2023-02-04T20:51:04.852Z,-3.07
2023-02-04T20:54:01.111Z,-3.08
2023-02-04T20:56:35.352Z,-3.22
2023-02-04T20:59:22.985Z,-3.33
2023-02-04T21:01:51.116Z,-3.54
2023-02-04T21:04:41.813Z,-3.75
2023-02-04T21:07:21.482Z,-3.77
2023-02-04T21:09:49.903Z,-3.78
2023-02-04T21:12:17.903Z,-3.74
2023-02-04T21:14:45.659Z,-3.74
2023-02-04T21:17:13.641Z,-3.89
2023-02-04T21:19:41.321Z,-4.12
2023-02-04T21:22:09.307Z,-4.28
2023-02-04T21:24:36.941Z,-4.40
2023-02-04T21:27:05.035Z,-4.47
2023-02-04T21:29:32.678Z,-4.50
2023-02-04T21:32:00.654Z,-4.39
2023-02-04T21:34:28.413Z,-4.42
2023-02-04T21:36:56.375Z,-4.23
2023-02-04T21:39:24.904Z,-4.04
2023-02-04T21:42:10.043Z,-3.98
2023-02-04T21:44:39.420Z,-3.75
2023-02-04T21:47:07.401Z,-3.69
2023-02-04T21:49:35.946Z,-3.18
2023-02-04T21:52:05.013Z,-3.16
2023-02-04T21:54:32.730Z,-3.14
2023-02-04T21:57:04.296Z,-3.37
2023-02-04T21:59:32.021Z,-3.58
2023-02-04T22:01:59.780Z,-3.62
2023-02-04T22:04:28.171Z,-3.82
2023-02-04T22:06:56.058Z,-3.96
2023-02-04T22:09:24.186Z,-4.18
2023-02-04T22:11:51.886Z,-4.33
2023-02-04T22:14:38.293Z,-4.40
2023-02-04T22:17:05.999Z,-4.54
2023-02-04T22:19:33.981Z,-4.48
2023-02-04T22:22:01.724Z,-4.55
2023-02-04T22:24:29.730Z,-4.67
2023-02-04T22:26:57.758Z,-4.69
2023-02-04T22:29:29.972Z,-4.77
2023-02-04T22:31:57.699Z,-5.03
2023-02-04T22:34:25.922Z,-4.94
2023-02-04T22:36:53.846Z,-5.16
2023-02-04T22:39:22.043Z,-5.01
2023-02-04T22:41:49.686Z,-5.17
2023-02-04T22:44:17.694Z,-5.16
2023-02-04T22:46:47.452Z,-5.25
2023-02-04T22:49:15.818Z,-5.37
2023-02-04T22:51:43.514Z,-5.42
2023-02-04T22:54:11.596Z,-5.33
2023-02-04T22:56:39.290Z,-5.38
2023-02-04T22:59:07.229Z,-5.40
2023-02-04T23:01:34.961Z,-5.43
2023-02-04T23:04:03.253Z,-5.40
2023-02-04T23:06:31.160Z,-5.35
2023-02-04T23:12:23.173Z,-5.13
2023-02-04T23:14:51.305Z,-5.03
2023-02-04T23:17:19.056Z,-5.00
2023-02-04T23:19:47.184Z,-4.92
2023-02-04T23:22:15.512Z,-4.72
2023-02-04T23:24:44.145Z,-4.76
2023-02-04T23:27:12.168Z,-4.53
2023-02-04T23:29:40.582Z,-4.50
2023-02-04T23:32:08.927Z,-4.40
2023-02-04T23:34:37.073Z,-4.39
2023-02-04T23:37:05.026Z,-4.19
2023-02-04T23:39:33.222Z,-4.12
2023-02-04T23:42:01.015Z,-4.08
2023-02-04T23:44:29.079Z,-4.01
2023-02-04T23:46:56.856Z,-3.98
2023-02-04T23:49:24.817Z,-3.97
2023-02-04T23:51:52.547Z,-3.83
2023-02-04T23:54:20.487Z,-3.89
2023-02-04T23:56:48.248Z,-3.86
2023-02-04T23:59:16.433Z,-3.78
